sensor_id;sensor_type;location;lat;lon;timestamp;P1;durP1;ratioP1;P2;durP2;ratioP2
13439;SDS011;6792;57.698;11.946;2023-04-25T00:00:47;11.15;;;7.75;;
13439;SDS011;6792;57.698;11.946;2023-04-25T00:03:16;9.58;;;7.30;;
13439;SDS011;6792;57.698;11.946;2023-04-25T00:05:45;8.95;;;7.60;;
13439;SDS011;6792;57.698;11.946;2023-04-25T00:08:16;9.17;;;7.60;;
13439;SDS011;6792;57.698;11.946;2023-04-25T00:10:45;10.23;;;7.33;;
13439;SDS011;6792;57.698;11.946;2023-04-25T00:13:17;9.85;;;7.70;;
13439;SDS011;6792;57.698;11.946;2023-04-25T00:15:46;9.93;;;7.27;;
13439;SDS011;6792;57.698;11.946;2023-04-25T00:18:16;8.63;;;6.65;;
13439;SDS011;6792;57.698;11.946;2023-04-25T00:20:46;8.45;;;6.83;;
13439;SDS011;6792;57.698;11.946;2023-04-25T00:23:16;9.00;;;7.30;;
13439;SDS011;6792;57.698;11.946;2023-04-25T00:25:46;10.15;;;7.62;;
13439;SDS011;6792;57.698;11.946;2023-04-25T00:28:16;8.53;;;7.50;;
13439;SDS011;6792;57.698;11.946;2023-04-25T00:30:45;11.78;;;7.42;;
13439;SDS011;6792;57.698;11.946;2023-04-25T00:33:15;9.87;;;7.13;;
13439;SDS011;6792;57.698;11.946;2023-04-25T00:35:44;9.27;;;7.60;;
13439;SDS011;6792;57.698;11.946;2023-04-25T00:38:15;12.28;;;7.95;;
13439;SDS011;6792;57.698;11.946;2023-04-25T00:40:45;12.43;;;8.00;;
13439;SDS011;6792;57.698;11.946;2023-04-25T00:43:14;12.83;;;8.13;;
13439;SDS011;6792;57.698;11.946;2023-04-25T00:45:43;12.20;;;8.37;;
13439;SDS011;6792;57.698;11.946;2023-04-25T00:48:14;10.50;;;7.83;;
13439;SDS011;6792;57.698;11.946;2023-04-25T00:50:48;11.97;;;8.57;;
13439;SDS011;6792;57.698;11.946;2023-04-25T00:53:17;12.00;;;8.43;;
13439;SDS011;6792;57.698;11.946;2023-04-25T00:55:46;12.43;;;8.63;;
13439;SDS011;6792;57.698;11.946;2023-04-25T00:58:17;11.67;;;9.10;;
13439;SDS011;6792;57.698;11.946;2023-04-25T01:00:47;11.67;;;8.67;;
13439;SDS011;6792;57.698;11.946;2023-04-25T01:03:18;14.70;;;9.53;;
13439;SDS011;6792;57.698;11.946;2023-04-25T01:05:48;12.93;;;9.13;;
13439;SDS011;6792;57.698;11.946;2023-04-25T01:08:17;12.20;;;8.97;;
13439;SDS011;6792;57.698;11.946;2023-04-25T01:10:48;13.93;;;9.30;;
13439;SDS011;6792;57.698;11.946;2023-04-25T01:13:17;11.73;;;8.97;;
13439;SDS011;6792;57.698;11.946;2023-04-25T01:15:46;12.53;;;9.40;;
13439;SDS011;6792;57.698;11.946;2023-04-25T01:18:19;12.17;;;9.33;;
13439;SDS011;6792;57.698;11.946;2023-04-25T01:20:49;13.17;;;9.47;;
13439;SDS011;6792;57.698;11.946;2023-04-25T01:23:20;14.43;;;9.30;;
13439;SDS011;6792;57.698;11.946;2023-04-25T01:25:49;13.83;;;9.93;;
13439;SDS011;6792;57.698;11.946;2023-04-25T01:28:20;12.23;;;9.23;;
13439;SDS011;6792;57.698;11.946;2023-04-25T01:30:49;12.87;;;9.50;;
13439;SDS011;6792;57.698;11.946;2023-04-25T01:33:22;10.80;;;8.67;;
13439;SDS011;6792;57.698;11.946;2023-04-25T01:35:51;13.67;;;9.70;;
13439;SDS011;6792;57.698;11.946;2023-04-25T01:38:21;12.57;;;9.40;;
13439;SDS011;6792;57.698;11.946;2023-04-25T01:40:50;13.37;;;9.40;;
13439;SDS011;6792;57.698;11.946;2023-04-25T01:43:21;13.87;;;8.60;;
13439;SDS011;6792;57.698;11.946;2023-04-25T01:45:50;12.03;;;8.87;;
13439;SDS011;6792;57.698;11.946;2023-04-25T01:48:19;12.23;;;9.10;;
13439;SDS011;6792;57.698;11.946;2023-04-25T01:50:48;13.58;;;9.00;;
13439;SDS011;6792;57.698;11.946;2023-04-25T01:53:18;10.57;;;8.33;;
13439;SDS011;6792;57.698;11.946;2023-04-25T01:55:47;10.80;;;8.00;;
13439;SDS011;6792;57.698;11.946;2023-04-25T01:58:16;10.43;;;7.87;;
13439;SDS011;6792;57.698;11.946;2023-04-25T02:00:46;9.97;;;7.97;;
13439;SDS011;6792;57.698;11.946;2023-04-25T02:03:15;9.13;;;7.40;;
13439;SDS011;6792;57.698;11.946;2023-04-25T02:05:44;9.17;;;7.50;;
13439;SDS011;6792;57.698;11.946;2023-04-25T02:08:16;10.30;;;7.67;;
13439;SDS011;6792;57.698;11.946;2023-04-25T02:10:47;9.53;;;7.27;;
13439;SDS011;6792;57.698;11.946;2023-04-25T02:13:16;10.10;;;7.43;;
13439;SDS011;6792;57.698;11.946;2023-04-25T02:15:46;10.50;;;7.27;;
13439;SDS011;6792;57.698;11.946;2023-04-25T02:18:15;8.67;;;6.87;;
13439;SDS011;6792;57.698;11.946;2023-04-25T02:20:44;9.20;;;6.70;;
13439;SDS011;6792;57.698;11.946;2023-04-25T02:23:16;8.80;;;7.23;;
13439;SDS011;6792;57.698;11.946;2023-04-25T02:25:49;7.53;;;6.10;;
13439;SDS011;6792;57.698;11.946;2023-04-25T02:28:19;8.77;;;7.10;;
13439;SDS011;6792;57.698;11.946;2023-04-25T02:30:48;8.80;;;6.60;;
13439;SDS011;6792;57.698;11.946;2023-04-25T02:33:17;7.90;;;6.72;;
13439;SDS011;6792;57.698;11.946;2023-04-25T02:35:47;8.93;;;6.53;;
13439;SDS011;6792;57.698;11.946;2023-04-25T02:38:16;9.30;;;6.83;;
13439;SDS011;6792;57.698;11.946;2023-04-25T02:40:45;7.73;;;6.30;;
13439;SDS011;6792;57.698;11.946;2023-04-25T02:43:15;7.60;;;5.87;;
13439;SDS011;6792;57.698;11.946;2023-04-25T02:45:47;7.90;;;6.10;;
13439;SDS011;6792;57.698;11.946;2023-04-25T02:48:16;7.93;;;6.67;;
13439;SDS011;6792;57.698;11.946;2023-04-25T02:50:45;9.08;;;6.78;;
13439;SDS011;6792;57.698;11.946;2023-04-25T02:53:14;8.85;;;6.25;;
13439;SDS011;6792;57.698;11.946;2023-04-25T02:55:46;8.67;;;6.30;;
13439;SDS011;6792;57.698;11.946;2023-04-25T02:58:15;9.40;;;7.30;;
13439;SDS011;6792;57.698;11.946;2023-04-25T03:00:45;9.63;;;6.90;;
13439;SDS011;6792;57.698;11.946;2023-04-25T03:03:14;9.73;;;7.20;;
13439;SDS011;6792;57.698;11.946;2023-04-25T03:05:44;9.87;;;7.10;;
13439;SDS011;6792;57.698;11.946;2023-04-25T03:08:14;13.07;;;7.87;;
13439;SDS011;6792;57.698;11.946;2023-04-25T03:10:44;8.90;;;6.80;;
13439;SDS011;6792;57.698;11.946;2023-04-25T03:13:14;8.83;;;7.03;;
13439;SDS011;6792;57.698;11.946;2023-04-25T03:15:44;9.97;;;7.27;;
13439;SDS011;6792;57.698;11.946;2023-04-25T03:18:14;9.87;;;6.87;;
13439;SDS011;6792;57.698;11.946;2023-04-25T03:20:44;9.60;;;6.60;;
13439;SDS011;6792;57.698;11.946;2023-04-25T03:23:13;7.17;;;6.00;;
13439;SDS011;6792;57.698;11.946;2023-04-25T03:25:43;7.40;;;5.93;;
13439;SDS011;6792;57.698;11.946;2023-04-25T03:28:12;6.57;;;5.33;;
13439;SDS011;6792;57.698;11.946;2023-04-25T03:30:41;7.13;;;5.67;;
13439;SDS011;6792;57.698;11.946;2023-04-25T03:33:10;7.87;;;5.83;;
13439;SDS011;6792;57.698;11.946;2023-04-25T03:35:39;6.87;;;5.57;;
13439;SDS011;6792;57.698;11.946;2023-04-25T03:38:09;6.60;;;5.27;;
13439;SDS011;6792;57.698;11.946;2023-04-25T03:40:38;9.17;;;6.33;;
13439;SDS011;6792;57.698;11.946;2023-04-25T03:43:08;7.70;;;6.13;;
13439;SDS011;6792;57.698;11.946;2023-04-25T03:45:37;6.23;;;5.43;;
13439;SDS011;6792;57.698;11.946;2023-04-25T03:48:06;9.07;;;6.67;;
13439;SDS011;6792;57.698;11.946;2023-04-25T03:50:35;8.90;;;7.00;;
13439;SDS011;6792;57.698;11.946;2023-04-25T03:53:05;10.50;;;7.50;;
13439;SDS011;6792;57.698;11.946;2023-04-25T03:55:34;11.37;;;7.80;;
13439;SDS011;6792;57.698;11.946;2023-04-25T03:58:03;9.60;;;7.17;;
13439;SDS011;6792;57.698;11.946;2023-04-25T04:00:32;10.57;;;7.33;;
13439;SDS011;6792;57.698;11.946;2023-04-25T04:03:02;9.57;;;7.40;;
13439;SDS011;6792;57.698;11.946;2023-04-25T04:05:31;11.10;;;7.33;;
13439;SDS011;6792;57.698;11.946;2023-04-25T04:08:00;9.53;;;7.80;;
13439;SDS011;6792;57.698;11.946;2023-04-25T04:10:29;10.77;;;8.20;;
13439;SDS011;6792;57.698;11.946;2023-04-25T04:12:58;12.67;;;8.17;;
13439;SDS011;6792;57.698;11.946;2023-04-25T04:15:27;10.97;;;7.40;;
13439;SDS011;6792;57.698;11.946;2023-04-25T04:18:00;10.82;;;8.10;;
13439;SDS011;6792;57.698;11.946;2023-04-25T04:20:30;10.87;;;7.47;;
13439;SDS011;6792;57.698;11.946;2023-04-25T04:23:00;11.97;;;8.17;;
13439;SDS011;6792;57.698;11.946;2023-04-25T04:25:29;10.17;;;6.83;;
13439;SDS011;6792;57.698;11.946;2023-04-25T04:27:58;13.67;;;7.33;;
13439;SDS011;6792;57.698;11.946;2023-04-25T04:30:27;7.93;;;5.97;;
13439;SDS011;6792;57.698;11.946;2023-04-25T04:32:57;10.47;;;6.50;;
13439;SDS011;6792;57.698;11.946;2023-04-25T04:35:28;9.67;;;6.27;;
13439;SDS011;6792;57.698;11.946;2023-04-25T04:37:57;6.40;;;4.87;;
13439;SDS011;6792;57.698;11.946;2023-04-25T04:40:26;7.10;;;5.10;;
13439;SDS011;6792;57.698;11.946;2023-04-25T04:42:56;8.87;;;5.60;;
13439;SDS011;6792;57.698;11.946;2023-04-25T04:45:26;6.20;;;4.63;;
13439;SDS011;6792;57.698;11.946;2023-04-25T04:47:55;7.67;;;4.70;;
13439;SDS011;6792;57.698;11.946;2023-04-25T04:50:24;8.00;;;5.25;;
13439;SDS011;6792;57.698;11.946;2023-04-25T04:52:53;7.30;;;4.30;;
13439;SDS011;6792;57.698;11.946;2023-04-25T04:55:22;5.83;;;4.27;;
13439;SDS011;6792;57.698;11.946;2023-04-25T04:57:52;5.60;;;4.37;;
13439;SDS011;6792;57.698;11.946;2023-04-25T05:00:21;7.17;;;3.47;;
13439;SDS011;6792;57.698;11.946;2023-04-25T05:02:50;3.77;;;3.37;;
13439;SDS011;6792;57.698;11.946;2023-04-25T05:05:19;5.23;;;3.40;;
13439;SDS011;6792;57.698;11.946;2023-04-25T05:07:48;4.67;;;3.20;;
13439;SDS011;6792;57.698;11.946;2023-04-25T05:10:18;4.73;;;3.10;;
13439;SDS011;6792;57.698;11.946;2023-04-25T05:12:47;3.73;;;3.00;;
13439;SDS011;6792;57.698;11.946;2023-04-25T05:15:17;5.67;;;3.07;;
13439;SDS011;6792;57.698;11.946;2023-04-25T05:17:46;6.00;;;2.60;;
13439;SDS011;6792;57.698;11.946;2023-04-25T05:20:15;3.70;;;2.57;;
13439;SDS011;6792;57.698;11.946;2023-04-25T05:22:45;4.10;;;2.77;;
13439;SDS011;6792;57.698;11.946;2023-04-25T05:25:14;3.70;;;2.50;;
13439;SDS011;6792;57.698;11.946;2023-04-25T05:27:44;4.30;;;2.60;;
13439;SDS011;6792;57.698;11.946;2023-04-25T05:33:02;4.50;;;3.00;;
13439;SDS011;6792;57.698;11.946;2023-04-25T05:35:32;5.93;;;2.40;;
13439;SDS011;6792;57.698;11.946;2023-04-25T05:38:01;13.20;;;2.30;;
13439;SDS011;6792;57.698;11.946;2023-04-25T05:40:30;5.57;;;2.40;;
13439;SDS011;6792;57.698;11.946;2023-04-25T05:42:59;4.20;;;2.00;;
13439;SDS011;6792;57.698;11.946;2023-04-25T05:45:28;2.03;;;1.87;;
13439;SDS011;6792;57.698;11.946;2023-04-25T05:47:57;3.27;;;1.97;;
13439;SDS011;6792;57.698;11.946;2023-04-25T05:50:27;4.30;;;2.10;;
13439;SDS011;6792;57.698;11.946;2023-04-25T05:52:56;1.77;;;1.60;;
13439;SDS011;6792;57.698;11.946;2023-04-25T05:55:25;1.40;;;1.17;;
13439;SDS011;6792;57.698;11.946;2023-04-25T05:57:54;2.43;;;1.33;;
13439;SDS011;6792;57.698;11.946;2023-04-25T06:00:24;1.77;;;1.07;;
13439;SDS011;6792;57.698;11.946;2023-04-25T06:02:53;1.63;;;1.47;;
13439;SDS011;6792;57.698;11.946;2023-04-25T06:05:22;3.60;;;1.57;;
13439;SDS011;6792;57.698;11.946;2023-04-25T06:07:52;2.57;;;1.50;;
13439;SDS011;6792;57.698;11.946;2023-04-25T06:10:21;5.33;;;1.80;;
13439;SDS011;6792;57.698;11.946;2023-04-25T06:12:50;3.43;;;2.00;;
13439;SDS011;6792;57.698;11.946;2023-04-25T06:15:19;5.10;;;2.50;;
13439;SDS011;6792;57.698;11.946;2023-04-25T06:17:49;5.33;;;2.30;;
13439;SDS011;6792;57.698;11.946;2023-04-25T06:20:18;7.47;;;2.97;;
13439;SDS011;6792;57.698;11.946;2023-04-25T06:22:50;7.13;;;2.40;;
13439;SDS011;6792;57.698;11.946;2023-04-25T06:25:19;8.00;;;2.73;;
13439;SDS011;6792;57.698;11.946;2023-04-25T06:27:49;6.93;;;2.07;;
13439;SDS011;6792;57.698;11.946;2023-04-25T06:30:18;7.40;;;1.70;;
13439;SDS011;6792;57.698;11.946;2023-04-25T06:32:49;4.40;;;1.93;;
13439;SDS011;6792;57.698;11.946;2023-04-25T06:35:19;3.23;;;1.50;;
13439;SDS011;6792;57.698;11.946;2023-04-25T06:37:48;3.80;;;2.10;;
13439;SDS011;6792;57.698;11.946;2023-04-25T06:40:18;4.63;;;1.73;;
13439;SDS011;6792;57.698;11.946;2023-04-25T06:42:47;6.30;;;2.27;;
13439;SDS011;6792;57.698;11.946;2023-04-25T06:45:16;6.50;;;2.00;;
13439;SDS011;6792;57.698;11.946;2023-04-25T06:47:46;3.53;;;1.77;;
13439;SDS011;6792;57.698;11.946;2023-04-25T06:50:16;3.77;;;1.60;;
13439;SDS011;6792;57.698;11.946;2023-04-25T06:52:46;2.03;;;1.00;;
13439;SDS011;6792;57.698;11.946;2023-04-25T06:55:17;7.33;;;1.20;;
13439;SDS011;6792;57.698;11.946;2023-04-25T06:57:46;5.57;;;1.40;;
13439;SDS011;6792;57.698;11.946;2023-04-25T07:00:16;3.67;;;1.30;;
13439;SDS011;6792;57.698;11.946;2023-04-25T07:02:46;5.67;;;1.20;;
13439;SDS011;6792;57.698;11.946;2023-04-25T07:05:16;4.63;;;0.80;;
13439;SDS011;6792;57.698;11.946;2023-04-25T07:07:46;2.53;;;0.83;;
13439;SDS011;6792;57.698;11.946;2023-04-25T07:10:15;2.33;;;0.90;;
13439;SDS011;6792;57.698;11.946;2023-04-25T07:12:44;3.27;;;1.00;;
13439;SDS011;6792;57.698;11.946;2023-04-25T07:15:13;2.30;;;0.50;;
13439;SDS011;6792;57.698;11.946;2023-04-25T07:17:45;2.20;;;0.40;;
13439;SDS011;6792;57.698;11.946;2023-04-25T07:20:15;0.87;;;0.63;;
13439;SDS011;6792;57.698;11.946;2023-04-25T07:22:44;3.43;;;0.40;;
13439;SDS011;6792;57.698;11.946;2023-04-25T07:25:13;2.80;;;0.83;;
13439;SDS011;6792;57.698;11.946;2023-04-25T07:27:42;2.40;;;0.50;;
13439;SDS011;6792;57.698;11.946;2023-04-25T07:30:13;2.47;;;0.30;;
13439;SDS011;6792;57.698;11.946;2023-04-25T07:32:42;2.33;;;0.50;;
13439;SDS011;6792;57.698;11.946;2023-04-25T07:35:12;3.63;;;0.80;;
13439;SDS011;6792;57.698;11.946;2023-04-25T07:37:43;2.40;;;0.47;;
13439;SDS011;6792;57.698;11.946;2023-04-25T07:40:17;2.70;;;0.80;;
13439;SDS011;6792;57.698;11.946;2023-04-25T07:42:47;1.57;;;0.90;;
13439;SDS011;6792;57.698;11.946;2023-04-25T07:45:16;2.60;;;0.83;;
13439;SDS011;6792;57.698;11.946;2023-04-25T07:47:45;1.80;;;0.53;;
13439;SDS011;6792;57.698;11.946;2023-04-25T07:50:14;1.10;;;0.50;;
13439;SDS011;6792;57.698;11.946;2023-04-25T07:52:44;1.00;;;0.30;;
13439;SDS011;6792;57.698;11.946;2023-04-25T07:55:15;3.13;;;0.50;;
13439;SDS011;6792;57.698;11.946;2023-04-25T07:57:44;3.20;;;0.57;;
13439;SDS011;6792;57.698;11.946;2023-04-25T08:00:14;1.23;;;0.20;;
13439;SDS011;6792;57.698;11.946;2023-04-25T08:02:44;1.17;;;0.40;;
13439;SDS011;6792;57.698;11.946;2023-04-25T08:05:17;0.70;;;0.30;;
13439;SDS011;6792;57.698;11.946;2023-04-25T08:07:46;2.67;;;0.57;;
13439;SDS011;6792;57.698;11.946;2023-04-25T08:10:18;1.27;;;0.37;;
13439;SDS011;6792;57.698;11.946;2023-04-25T08:12:49;1.17;;;0.50;;
13439;SDS011;6792;57.698;11.946;2023-04-25T08:15:18;1.37;;;0.23;;
13439;SDS011;6792;57.698;11.946;2023-04-25T08:17:48;2.30;;;0.53;;
13439;SDS011;6792;57.698;11.946;2023-04-25T08:20:17;0.97;;;0.43;;
13439;SDS011;6792;57.698;11.946;2023-04-25T08:22:46;1.40;;;0.30;;
13439;SDS011;6792;57.698;11.946;2023-04-25T08:25:16;6.40;;;0.83;;
13439;SDS011;6792;57.698;11.946;2023-04-25T08:27:46;1.90;;;0.53;;
13439;SDS011;6792;57.698;11.946;2023-04-25T08:30:19;1.03;;;0.40;;
13439;SDS011;6792;57.698;11.946;2023-04-25T08:32:48;1.87;;;0.50;;
13439;SDS011;6792;57.698;11.946;2023-04-25T08:35:17;1.20;;;0.30;;
13439;SDS011;6792;57.698;11.946;2023-04-25T08:37:47;2.30;;;0.50;;
13439;SDS011;6792;57.698;11.946;2023-04-25T08:40:17;2.40;;;0.40;;
13439;SDS011;6792;57.698;11.946;2023-04-25T08:42:52;2.93;;;0.67;;
13439;SDS011;6792;57.698;11.946;2023-04-25T08:45:33;4.87;;;0.63;;
13439;SDS011;6792;57.698;11.946;2023-04-25T08:48:04;1.10;;;0.40;;
13439;SDS011;6792;57.698;11.946;2023-04-25T08:50:33;2.40;;;0.60;;
13439;SDS011;6792;57.698;11.946;2023-04-25T08:53:03;2.33;;;0.50;;
13439;SDS011;6792;57.698;11.946;2023-04-25T08:55:34;1.17;;;0.50;;
13439;SDS011;6792;57.698;11.946;2023-04-25T08:58:07;2.53;;;0.50;;
13439;SDS011;6792;57.698;11.946;2023-04-25T09:00:37;1.90;;;0.40;;
13439;SDS011;6792;57.698;11.946;2023-04-25T09:03:06;1.30;;;0.50;;
13439;SDS011;6792;57.698;11.946;2023-04-25T09:05:35;1.50;;;0.50;;
13439;SDS011;6792;57.698;11.946;2023-04-25T09:08:05;2.37;;;0.30;;
13439;SDS011;6792;57.698;11.946;2023-04-25T09:10:34;1.90;;;0.50;;
13439;SDS011;6792;57.698;11.946;2023-04-25T09:13:04;2.30;;;0.77;;
13439;SDS011;6792;57.698;11.946;2023-04-25T09:15:39;1.90;;;0.40;;
13439;SDS011;6792;57.698;11.946;2023-04-25T09:18:22;0.73;;;0.50;;
13439;SDS011;6792;57.698;11.946;2023-04-25T09:20:52;0.73;;;0.43;;
13439;SDS011;6792;57.698;11.946;2023-04-25T09:23:22;2.57;;;0.50;;
13439;SDS011;6792;57.698;11.946;2023-04-25T09:25:52;2.13;;;0.70;;
13439;SDS011;6792;57.698;11.946;2023-04-25T09:28:25;4.77;;;0.83;;
13439;SDS011;6792;57.698;11.946;2023-04-25T09:30:55;2.77;;;0.40;;
13439;SDS011;6792;57.698;11.946;2023-04-25T09:33:28;0.90;;;0.40;;
13439;SDS011;6792;57.698;11.946;2023-04-25T09:36:03;1.73;;;0.40;;
13439;SDS011;6792;57.698;11.946;2023-04-25T09:38:40;1.67;;;0.53;;
13439;SDS011;6792;57.698;11.946;2023-04-25T09:41:10;0.47;;;0.40;;
13439;SDS011;6792;57.698;11.946;2023-04-25T09:43:40;2.40;;;0.20;;
13439;SDS011;6792;57.698;11.946;2023-04-25T09:46:12;3.37;;;0.40;;
13439;SDS011;6792;57.698;11.946;2023-04-25T09:48:46;0.73;;;0.33;;
13439;SDS011;6792;57.698;11.946;2023-04-25T09:51:17;2.43;;;0.40;;
13439;SDS011;6792;57.698;11.946;2023-04-25T09:53:46;0.97;;;0.40;;
13439;SDS011;6792;57.698;11.946;2023-04-25T09:56:17;2.33;;;0.50;;
13439;SDS011;6792;57.698;11.946;2023-04-25T09:58:49;0.93;;;0.40;;
13439;SDS011;6792;57.698;11.946;2023-04-25T10:01:20;1.60;;;0.40;;
13439;SDS011;6792;57.698;11.946;2023-04-25T10:03:50;1.33;;;0.20;;
13439;SDS011;6792;57.698;11.946;2023-04-25T10:06:22;1.10;;;0.40;;
13439;SDS011;6792;57.698;11.946;2023-04-25T10:08:54;0.40;;;0.40;;
13439;SDS011;6792;57.698;11.946;2023-04-25T10:11:25;0.97;;;0.40;;
13439;SDS011;6792;57.698;11.946;2023-04-25T10:13:55;3.03;;;0.40;;
13439;SDS011;6792;57.698;11.946;2023-04-25T10:16:25;1.03;;;0.40;;
13439;SDS011;6792;57.698;11.946;2023-04-25T10:18:55;1.53;;;0.30;;
13439;SDS011;6792;57.698;11.946;2023-04-25T10:21:24;0.77;;;0.40;;
13439;SDS011;6792;57.698;11.946;2023-04-25T10:23:56;2.20;;;0.37;;
13439;SDS011;6792;57.698;11.946;2023-04-25T10:26:26;1.03;;;0.50;;
13439;SDS011;6792;57.698;11.946;2023-04-25T10:28:56;0.30;;;0.30;;
13439;SDS011;6792;57.698;11.946;2023-04-25T10:31:27;0.63;;;0.40;;
13439;SDS011;6792;57.698;11.946;2023-04-25T10:33:59;0.40;;;0.17;;
13439;SDS011;6792;57.698;11.946;2023-04-25T10:36:30;1.43;;;0.30;;
13439;SDS011;6792;57.698;11.946;2023-04-25T10:39:03;1.60;;;0.30;;
13439;SDS011;6792;57.698;11.946;2023-04-25T10:41:46;3.30;;;0.47;;
13439;SDS011;6792;57.698;11.946;2023-04-25T10:44:16;2.07;;;0.33;;
13439;SDS011;6792;57.698;11.946;2023-04-25T10:46:46;2.53;;;0.57;;
13439;SDS011;6792;57.698;11.946;2023-04-25T10:52:24;1.23;;;0.50;;
13439;SDS011;6792;57.698;11.946;2023-04-25T10:54:56;1.43;;;0.40;;
13439;SDS011;6792;57.698;11.946;2023-04-25T10:57:27;1.80;;;0.50;;
13439;SDS011;6792;57.698;11.946;2023-04-25T11:00:16;0.80;;;0.50;;
13439;SDS011;6792;57.698;11.946;2023-04-25T11:02:48;0.33;;;0.33;;
13439;SDS011;6792;57.698;11.946;2023-04-25T11:05:20;2.70;;;0.70;;
13439;SDS011;6792;57.698;11.946;2023-04-25T11:07:54;0.80;;;0.40;;
13439;SDS011;6792;57.698;11.946;2023-04-25T11:10:25;0.50;;;0.50;;
13439;SDS011;6792;57.698;11.946;2023-04-25T11:12:55;0.50;;;0.50;;
13439;SDS011;6792;57.698;11.946;2023-04-25T11:15:25;2.07;;;0.50;;
13439;SDS011;6792;57.698;11.946;2023-04-25T11:17:55;5.20;;;0.60;;
13439;SDS011;6792;57.698;11.946;2023-04-25T11:20:25;1.53;;;0.40;;
13439;SDS011;6792;57.698;11.946;2023-04-25T11:22:56;1.33;;;0.50;;
13439;SDS011;6792;57.698;11.946;2023-04-25T11:25:27;1.50;;;0.70;;
13439;SDS011;6792;57.698;11.946;2023-04-25T11:27:57;0.47;;;0.47;;
13439;SDS011;6792;57.698;11.946;2023-04-25T11:30:28;1.13;;;0.60;;
13439;SDS011;6792;57.698;11.946;2023-04-25T11:32:57;0.60;;;0.40;;
13439;SDS011;6792;57.698;11.946;2023-04-25T11:35:27;5.87;;;0.90;;
13439;SDS011;6792;57.698;11.946;2023-04-25T11:37:56;3.93;;;0.90;;
13439;SDS011;6792;57.698;11.946;2023-04-25T11:40:25;1.27;;;0.57;;
13439;SDS011;6792;57.698;11.946;2023-04-25T11:42:55;1.27;;;0.50;;
13439;SDS011;6792;57.698;11.946;2023-04-25T11:45:26;1.63;;;0.80;;
13439;SDS011;6792;57.698;11.946;2023-04-25T11:47:57;5.10;;;0.60;;
13439;SDS011;6792;57.698;11.946;2023-04-25T11:50:26;3.70;;;0.70;;
13439;SDS011;6792;57.698;11.946;2023-04-25T11:52:57;3.43;;;0.50;;
13439;SDS011;6792;57.698;11.946;2023-04-25T11:55:26;1.50;;;0.50;;
13439;SDS011;6792;57.698;11.946;2023-04-25T11:57:59;3.30;;;0.83;;
13439;SDS011;6792;57.698;11.946;2023-04-25T12:00:28;5.97;;;0.70;;
13439;SDS011;6792;57.698;11.946;2023-04-25T12:02:58;5.87;;;0.90;;
13439;SDS011;6792;57.698;11.946;2023-04-25T12:05:30;3.07;;;1.10;;
13439;SDS011;6792;57.698;11.946;2023-04-25T12:08:13;3.20;;;0.73;;
13439;SDS011;6792;57.698;11.946;2023-04-25T12:10:44;2.63;;;0.67;;
13439;SDS011;6792;57.698;11.946;2023-04-25T12:13:25;2.30;;;0.80;;
13439;SDS011;6792;57.698;11.946;2023-04-25T12:15:56;0.93;;;0.50;;
13439;SDS011;6792;57.698;11.946;2023-04-25T12:18:27;4.93;;;0.73;;
13439;SDS011;6792;57.698;11.946;2023-04-25T12:20:57;0.50;;;0.50;;
13439;SDS011;6792;57.698;11.946;2023-04-25T12:23:27;2.10;;;0.67;;
13439;SDS011;6792;57.698;11.946;2023-04-25T12:25:56;0.40;;;0.40;;
13439;SDS011;6792;57.698;11.946;2023-04-25T12:28:26;1.37;;;0.70;;
13439;SDS011;6792;57.698;11.946;2023-04-25T12:30:58;3.30;;;0.60;;
13439;SDS011;6792;57.698;11.946;2023-04-25T12:33:28;1.33;;;0.80;;
13439;SDS011;6792;57.698;11.946;2023-04-25T12:35:59;2.10;;;0.60;;
13439;SDS011;6792;57.698;11.946;2023-04-25T12:38:35;1.90;;;0.70;;
13439;SDS011;6792;57.698;11.946;2023-04-25T12:41:05;1.80;;;0.50;;
13439;SDS011;6792;57.698;11.946;2023-04-25T12:43:34;4.23;;;0.57;;
13439;SDS011;6792;57.698;11.946;2023-04-25T12:46:07;2.47;;;0.70;;
13439;SDS011;6792;57.698;11.946;2023-04-25T12:48:36;1.20;;;0.60;;
13439;SDS011;6792;57.698;11.946;2023-04-25T12:51:05;1.70;;;0.40;;
13439;SDS011;6792;57.698;11.946;2023-04-25T12:53:34;2.40;;;0.70;;
13439;SDS011;6792;57.698;11.946;2023-04-25T12:56:06;0.63;;;0.50;;
13439;SDS011;6792;57.698;11.946;2023-04-25T12:58:36;5.93;;;1.17;;
13439;SDS011;6792;57.698;11.946;2023-04-25T13:01:05;5.60;;;0.77;;
13439;SDS011;6792;57.698;11.946;2023-04-25T13:03:34;2.00;;;0.70;;
13439;SDS011;6792;57.698;11.946;2023-04-25T13:06:04;1.90;;;0.67;;
13439;SDS011;6792;57.698;11.946;2023-04-25T13:08:34;2.30;;;0.37;;
13439;SDS011;6792;57.698;11.946;2023-04-25T13:11:06;3.07;;;0.70;;
13439;SDS011;6792;57.698;11.946;2023-04-25T13:13:36;0.73;;;0.70;;
13439;SDS011;6792;57.698;11.946;2023-04-25T13:16:06;1.77;;;0.60;;
13439;SDS011;6792;57.698;11.946;2023-04-25T13:18:36;5.97;;;0.83;;
13439;SDS011;6792;57.698;11.946;2023-04-25T13:21:06;5.23;;;0.93;;
13439;SDS011;6792;57.698;11.946;2023-04-25T13:23:37;3.50;;;0.80;;
13439;SDS011;6792;57.698;11.946;2023-04-25T13:26:07;2.50;;;0.70;;
13439;SDS011;6792;57.698;11.946;2023-04-25T13:28:36;7.80;;;1.13;;
13439;SDS011;6792;57.698;11.946;2023-04-25T13:31:06;1.97;;;0.83;;
13439;SDS011;6792;57.698;11.946;2023-04-25T13:33:36;2.47;;;1.00;;
13439;SDS011;6792;57.698;11.946;2023-04-25T13:36:05;1.03;;;0.63;;
13439;SDS011;6792;57.698;11.946;2023-04-25T13:38:35;0.67;;;0.60;;
13439;SDS011;6792;57.698;11.946;2023-04-25T13:41:05;0.67;;;0.50;;
13439;SDS011;6792;57.698;11.946;2023-04-25T13:43:34;0.50;;;0.50;;
13439;SDS011;6792;57.698;11.946;2023-04-25T13:46:04;0.70;;;0.43;;
13439;SDS011;6792;57.698;11.946;2023-04-25T13:48:33;0.90;;;0.67;;
13439;SDS011;6792;57.698;11.946;2023-04-25T13:51:02;2.77;;;0.50;;
13439;SDS011;6792;57.698;11.946;2023-04-25T13:53:32;1.33;;;0.47;;
13439;SDS011;6792;57.698;11.946;2023-04-25T13:56:01;0.30;;;0.30;;
13439;SDS011;6792;57.698;11.946;2023-04-25T13:58:31;1.47;;;0.60;;
13439;SDS011;6792;57.698;11.946;2023-04-25T14:01:00;1.23;;;0.77;;
13439;SDS011;6792;57.698;11.946;2023-04-25T14:03:30;4.30;;;0.70;;
13439;SDS011;6792;57.698;11.946;2023-04-25T14:06:00;1.13;;;0.50;;
13439;SDS011;6792;57.698;11.946;2023-04-25T14:08:29;0.50;;;0.50;;
13439;SDS011;6792;57.698;11.946;2023-04-25T14:10:58;2.10;;;0.60;;
13439;SDS011;6792;57.698;11.946;2023-04-25T14:13:27;1.17;;;0.60;;
13439;SDS011;6792;57.698;11.946;2023-04-25T14:15:57;2.23;;;0.73;;
13439;SDS011;6792;57.698;11.946;2023-04-25T14:18:26;1.90;;;0.57;;
13439;SDS011;6792;57.698;11.946;2023-04-25T14:20:55;1.20;;;0.60;;
13439;SDS011;6792;57.698;11.946;2023-04-25T14:23:24;1.23;;;0.50;;
13439;SDS011;6792;57.698;11.946;2023-04-25T14:25:55;0.53;;;0.50;;
13439;SDS011;6792;57.698;11.946;2023-04-25T14:28:24;0.97;;;0.77;;
13439;SDS011;6792;57.698;11.946;2023-04-25T14:30:53;0.70;;;0.43;;
13439;SDS011;6792;57.698;11.946;2023-04-25T14:33:23;0.40;;;0.40;;
13439;SDS011;6792;57.698;11.946;2023-04-25T14:35:52;0.67;;;0.47;;
13439;SDS011;6792;57.698;11.946;2023-04-25T14:38:22;1.07;;;0.50;;
13439;SDS011;6792;57.698;11.946;2023-04-25T14:40:52;1.60;;;0.50;;
13439;SDS011;6792;57.698;11.946;2023-04-25T14:43:21;0.43;;;0.43;;
13439;SDS011;6792;57.698;11.946;2023-04-25T14:45:58;0.63;;;0.40;;
13439;SDS011;6792;57.698;11.946;2023-04-25T14:48:28;1.00;;;0.53;;
13439;SDS011;6792;57.698;11.946;2023-04-25T14:50:57;2.43;;;0.53;;
13439;SDS011;6792;57.698;11.946;2023-04-25T14:53:27;4.73;;;0.40;;
13439;SDS011;6792;57.698;11.946;2023-04-25T14:55:57;1.60;;;0.50;;
13439;SDS011;6792;57.698;11.946;2023-04-25T14:58:26;3.37;;;0.50;;
13439;SDS011;6792;57.698;11.946;2023-04-25T15:00:55;0.93;;;0.40;;
13439;SDS011;6792;57.698;11.946;2023-04-25T15:03:24;1.23;;;0.47;;
13439;SDS011;6792;57.698;11.946;2023-04-25T15:05:54;1.70;;;0.20;;
13439;SDS011;6792;57.698;11.946;2023-04-25T15:08:24;2.53;;;0.30;;